»·PEaware :: ACA311 CYVR-KPSP

ACA311 :: CYVR-KPSP

FLIGHT INFORMATION

Flight Status: Arrived
Operator:
Air Canada
More flights by this operator :: More flights under this callsign
Pilot: Konrad W. (32064)
Aircraft: AIRBUS A320
(A320)
More flights by this aircraft type
Origin: CYVR Vancouver Intl
Canada
Destination: KPSP Palm Springs Intl
United States
More flights between these airports :: More routes between these airports
Route: FSR7 CFKFL J5 PINNI OYVEY SIZLR3
File this flight plan on PilotEdge
Remarks:
Altitude:
(Current/Filed)
37,000ft
Speed:
(Current/Filed)
440kts
Departed: 06-Dec-20 07:20 PM
Arrived: 06-Dec-20 09:44 PM
Distance/Time
Traveled:
969nm/2:23
Distance/Time
To Go:
Arrived

Flight Plot

Page will automatically refresh every two minutes.

Flight plan parsing failed; only flown route is shown


Map Options




Map Legend


Flown Route
Filed Route
Departure Airport
Arrival Airport
Navaid (VOR, NDB)
Fix

Horizontal Profiles

Position Reports

Time Latitude Longitude Heading Altitude Ground
Speed
06-Dec-20 19:09 49.195715 -123.186080 99 22ft 0kts
06-Dec-20 19:10 49.195715 -123.186080 99 22ft 0kts
06-Dec-20 19:11 49.195715 -123.186080 99 22ft 0kts
06-Dec-20 19:12 49.195715 -123.186080 99 22ft 0kts
06-Dec-20 19:13 49.195715 -123.186080 99 22ft 0kts
06-Dec-20 19:14 49.195715 -123.186080 99 22ft 0kts
06-Dec-20 19:15 49.195715 -123.186080 99 22ft 0kts
06-Dec-20 19:16 49.195715 -123.186080 99 22ft 0kts
06-Dec-20 19:17 49.195978 -123.186502 182 22ft 2kts
06-Dec-20 19:18 49.193944 -123.187722 233 22ft 16kts
06-Dec-20 19:19 49.192289 -123.200519 259 22ft 45kts
06-Dec-20 19:20 49.190824 -123.204358 189 23ft 0kts
06-Dec-20 19:21 49.189301 -123.200974 99 23ft 51kts
06-Dec-20 19:22 49.177878 -123.131397 113 1051ft 260kts
06-Dec-20 19:23 49.134764 -123.072372 191 3066ft 221kts
06-Dec-20 19:24 49.075340 -123.094165 185 5100ft 222kts
06-Dec-20 19:25 49.011746 -123.090058 174 7626ft 239kts
06-Dec-20 19:26 48.944918 -123.070312 167 10164ft 253kts
06-Dec-20 19:27 48.874439 -123.037786 166 12469ft 285kts
06-Dec-20 19:28 48.796329 -123.001624 163 15182ft 304kts
06-Dec-20 19:29 48.714948 -122.958828 162 17776ft 321kts
06-Dec-20 19:30 48.627425 -122.913323 161 19385ft 349kts
06-Dec-20 19:31 48.537006 -122.866465 161 20881ft 354kts
06-Dec-20 19:32 48.441959 -122.817417 160 22385ft 371kts
06-Dec-20 19:33 48.341775 -122.765929 160 23885ft 391kts
06-Dec-20 19:34 48.236892 -122.712243 160 25384ft 406kts
06-Dec-20 19:35 48.128802 -122.657172 161 26879ft 420kts
06-Dec-20 19:36 48.016358 -122.600165 161 28131ft 434kts
06-Dec-20 19:37 47.902150 -122.542502 161 29327ft 439kts
06-Dec-20 19:38 47.785452 -122.483882 161 30521ft 447kts
06-Dec-20 19:39 47.667145 -122.424719 162 31718ft 454kts
06-Dec-20 19:40 47.547477 -122.365176 161 32917ft 456kts
06-Dec-20 19:41 47.428845 -122.306929 164 34100ft 458kts
06-Dec-20 19:42 47.306807 -122.258474 164 35290ft 457kts
06-Dec-20 19:43 47.185610 -122.210398 164 36472ft 453kts
06-Dec-20 19:44 47.064523 -122.162599 164 37460ft 455kts
06-Dec-20 19:45 46.939951 -122.113660 163 37557ft 479kts
06-Dec-20 19:46 46.812585 -122.063926 163 37560ft 480kts
06-Dec-20 19:47 46.680408 -122.012556 162 37473ft 498kts
06-Dec-20 19:48 46.548663 -121.961595 163 37440ft 490kts
06-Dec-20 19:49 46.416241 -121.910644 162 37493ft 494kts
06-Dec-20 19:50 46.284055 -121.860060 162 37493ft 492kts
06-Dec-20 19:51 46.151860 -121.809713 162 37500ft 494kts
06-Dec-20 19:52 46.019972 -121.759682 162 37513ft 492kts
06-Dec-20 19:53 45.888346 -121.710042 163 37515ft 491kts
06-Dec-20 19:54 45.756614 -121.660607 163 37514ft 492kts
06-Dec-20 19:55 45.624281 -121.611182 163 37518ft 493kts
06-Dec-20 19:56 45.492211 -121.562103 163 37516ft 492kts
06-Dec-20 19:57 45.359577 -121.513037 163 37527ft 494kts
06-Dec-20 19:58 45.227314 -121.464351 163 37503ft 495kts
06-Dec-20 19:59 45.094378 -121.415654 163 37506ft 495kts
06-Dec-20 20:00 44.960660 -121.366914 164 37502ft 497kts
06-Dec-20 20:01 44.827118 -121.318460 164 37508ft 498kts
06-Dec-20 20:02 44.693513 -121.270211 164 37506ft 497kts
06-Dec-20 20:03 44.559522 -121.222070 164 37510ft 499kts
06-Dec-20 20:04 44.425282 -121.174097 164 37515ft 506kts
06-Dec-20 20:05 44.287367 -121.124973 164 37572ft 512kts
06-Dec-20 20:06 44.150082 -121.076339 164 37579ft 514kts
06-Dec-20 20:07 44.012223 -121.027749 165 37597ft 514kts
06-Dec-20 20:08 43.873445 -120.979064 165 37558ft 518kts
06-Dec-20 20:09 43.734583 -120.930597 165 37515ft 516kts
06-Dec-20 20:10 43.594953 -120.882075 166 37524ft 518kts
06-Dec-20 20:11 43.455551 -120.833869 166 37522ft 521kts
06-Dec-20 20:12 43.315523 -120.785686 166 37528ft 521kts
06-Dec-20 20:13 43.175247 -120.737635 166 37530ft 521kts
06-Dec-20 20:14 43.034636 -120.689709 166 37521ft 523kts
06-Dec-20 20:15 42.893945 -120.641966 167 37538ft 525kts
06-Dec-20 20:16 42.751922 -120.594011 167 37543ft 526kts
06-Dec-20 20:17 42.610114 -120.546350 167 37554ft 528kts
06-Dec-20 20:18 42.468086 -120.499417 169 37531ft 528kts
06-Dec-20 20:19 42.324489 -120.456566 170 37524ft 531kts
06-Dec-20 20:21 42.180778 -120.413649 170 37537ft 531kts
06-Dec-20 20:22 42.036955 -120.370883 170 37540ft 532kts
06-Dec-20 20:23 41.892746 -120.328201 170 37543ft 533kts
06-Dec-20 20:24 41.748107 -120.285594 170 37521ft 534kts
06-Dec-20 20:25 41.603271 -120.243159 170 37483ft 535kts
06-Dec-20 20:26 41.457703 -120.200654 171 37499ft 538kts
06-Dec-20 20:27 41.311892 -120.158232 171 37461ft 540kts
06-Dec-20 20:28 41.165502 -120.115898 171 37453ft 543kts
06-Dec-20 20:29 41.017917 -120.073453 171 37479ft 544kts
06-Dec-20 20:30 40.869632 -120.030897 172 37477ft 546kts
06-Dec-20 20:31 40.721914 -119.988771 172 37471ft 545kts
06-Dec-20 20:32 40.574280 -119.946893 173 37489ft 546kts
06-Dec-20 20:33 40.425887 -119.904943 173 37484ft 548kts
06-Dec-20 20:34 40.278527 -119.863500 173 37480ft 549kts
06-Dec-20 20:34 40.153966 -119.828595 173 37508ft 549kts
06-Dec-20 20:36 39.979547 -119.779961 173 37507ft 553kts
06-Dec-20 20:37 39.829457 -119.738308 173 37481ft 553kts
06-Dec-20 20:37 39.703736 -119.703560 173 37493ft 555kts
06-Dec-20 20:39 39.528732 -119.656171 176 37446ft 551kts
06-Dec-20 20:39 39.402623 -119.637402 180 37445ft 552kts
06-Dec-20 20:41 39.225823 -119.611614 180 37427ft 546kts
06-Dec-20 20:41 39.099618 -119.593002 179 37460ft 551kts
06-Dec-20 20:42 38.948251 -119.571545 178 37440ft 550kts
06-Dec-20 20:43 38.797570 -119.550080 178 37437ft 548kts
06-Dec-20 20:44 38.647651 -119.528683 178 37366ft 544kts
06-Dec-20 20:45 38.498790 -119.507567 178 37352ft 537kts
06-Dec-20 20:46 38.352606 -119.486878 178 37303ft 528kts
06-Dec-20 20:47 38.206534 -119.466216 177 37309ft 529kts
06-Dec-20 20:48 38.061225 -119.445989 177 37308ft 526kts
06-Dec-20 20:49 37.917933 -119.426009 176 37315ft 527kts
06-Dec-20 20:50 37.772669 -119.405659 177 37306ft 526kts
06-Dec-20 20:51 37.628352 -119.385701 177 37303ft 529kts
06-Dec-20 20:52 37.483109 -119.365621 176 37286ft 528kts
06-Dec-20 20:53 37.337713 -119.345646 176 37293ft 530kts
06-Dec-20 20:54 37.191622 -119.325128 174 37353ft 533kts
06-Dec-20 20:55 37.045301 -119.305535 175 37293ft 531kts
06-Dec-20 20:56 36.899523 -119.285773 176 37308ft 528kts
06-Dec-20 20:57 36.754842 -119.257271 164 37329ft 531kts
06-Dec-20 20:58 36.612937 -119.206483 164 37318ft 534kts
06-Dec-20 20:59 36.471509 -119.156706 164 37321ft 533kts
06-Dec-20 21:00 36.330172 -119.107100 163 37284ft 530kts
06-Dec-20 21:01 36.189869 -119.058018 163 37287ft 527kts
06-Dec-20 21:03 36.027017 -119.001264 163 37289ft 524kts
06-Dec-20 21:03 35.910358 -118.960794 163 37293ft 524kts
06-Dec-20 21:04 35.770485 -118.916289 171 37293ft 526kts
06-Dec-20 21:05 35.626406 -118.888470 171 37271ft 524kts
06-Dec-20 21:06 35.482534 -118.859889 170 36438ft 525kts
06-Dec-20 21:07 35.350959 -118.804117 141 34681ft 497kts
06-Dec-20 21:08 35.240320 -118.710515 142 32777ft 478kts
06-Dec-20 21:09 35.132726 -118.622462 144 30925ft 461kts
06-Dec-20 21:10 35.028475 -118.537494 144 29063ft 443kts
06-Dec-20 21:11 34.928537 -118.456235 144 27153ft 424kts
06-Dec-20 21:12 34.833170 -118.378752 145 25212ft 408kts
06-Dec-20 21:13 34.750666 -118.290333 127 23568ft 392kts
06-Dec-20 21:14 34.685345 -118.188260 127 21883ft 380kts
06-Dec-20 21:15 34.621108 -118.089255 126 20404ft 370kts
06-Dec-20 21:16 34.563388 -117.986738 115 20049ft 371kts
06-Dec-20 21:17 34.519319 -117.877804 115 18541ft 354kts
06-Dec-20 21:18 34.476104 -117.772772 115 17063ft 346kts
06-Dec-20 21:19 34.433864 -117.670013 115 16144ft 340kts
06-Dec-20 21:20 34.392167 -117.567909 116 16086ft 340kts
06-Dec-20 21:21 34.350384 -117.465973 116 16079ft 339kts
06-Dec-20 21:22 34.308874 -117.364014 115 16024ft 340kts
06-Dec-20 21:23 34.263608 -117.264958 119 15982ft 338kts
06-Dec-20 21:24 34.217489 -117.166414 119 15978ft 338kts
06-Dec-20 21:25 34.171368 -117.068186 119 15977ft 337kts
06-Dec-20 21:26 34.125114 -116.970287 119 15978ft 337kts
06-Dec-20 21:27 34.078867 -116.873015 122 14944ft 332kts
06-Dec-20 21:28 34.036668 -116.781222 119 12921ft 300kts
06-Dec-20 21:29 34.000088 -116.693286 114 11164ft 286kts
06-Dec-20 21:30 33.967559 -116.605876 114 11008ft 287kts
06-Dec-20 21:31 33.934960 -116.518531 114 11000ft 286kts
06-Dec-20 21:32 33.902215 -116.432368 116 10998ft 287kts
06-Dec-20 21:33 33.867018 -116.346094 116 10997ft 287kts
06-Dec-20 21:34 33.832689 -116.262355 116 9376ft 260kts
06-Dec-20 21:35 33.804855 -116.193753 116 7889ft 213kts
06-Dec-20 21:36 33.758047 -116.170535 214 5603ft 198kts
06-Dec-20 21:37 33.751759 -116.225609 287 4093ft 177kts
06-Dec-20 21:38 33.768653 -116.281698 290 3981ft 179kts
06-Dec-20 21:39 33.781193 -116.338657 280 3105ft 170kts
06-Dec-20 21:40 33.783429 -116.393547 271 2051ft 157kts
06-Dec-20 21:41 33.783719 -116.443617 284 1855ft 147kts
06-Dec-20 21:42 33.803489 -116.484263 319 847ft 142kts
06-Dec-20 21:43 33.828521 -116.506719 309 440ft 37kts
06-Dec-20 21:44 33.828769 -116.508252 249 442ft 0kts
06-Dec-20 21:45 33.827092 -116.507409 144 439ft 11kts
06-Dec-20 21:46 33.824478 -116.506395 188 429ft 8kts
06-Dec-20 21:47 33.823838 -116.506576 193 427ft 0kts
06-Dec-20 21:48 33.823838 -116.506576 193 427ft 0kts
06-Dec-20 21:49 33.823838 -116.506576 193 427ft 0kts
06-Dec-20 21:50 33.823838 -116.506576 193 427ft 0kts
06-Dec-20 21:51 33.823838 -116.506576 193 427ft 0kts
06-Dec-20 21:52 33.823838 -116.506576 193 427ft 0kts
06-Dec-20 21:53 33.823838 -116.506576 193 427ft 0kts

Navigation Log

Ident Type
Flight plan parsing failed, navigation log unavailable